Time;durP1;ratioP1;P1;durP2;ratioP2;P2;SDS_P1;SDS_P2;PMS_P1;PMS_P2;Temp;Humidity;BMP_temperature;BMP_pressure;BME280_temperature;BME280_humidity;BME280_pressure;Samples;Min_cycle;Max_cycle;Signal;HPM_P1;HPM_P2
2022/01/05 00:00:34;;;;;;;3.88;2.22;;;;;;;9.99;100.00;96696.81;5116939;28;20031;-87
2022/01/05 00:02:59;;;;;;;3.72;1.88;;;;;;;10.04;100.00;96709.53;5117816;28;20035;-87
2022/01/05 00:05:24;;;;;;;4.18;2.00;;;;;;;10.12;100.00;96703.25;5117281;28;20751;-84
2022/01/05 00:07:50;;;;;;;4.35;2.20;;;;;;;10.14;100.00;96704.59;5125259;28;20577;-85
2022/01/05 00:10:16;;;;;;;3.45;2.00;;;;;;;10.14;100.00;96709.25;5124256;28;20476;-84
2022/01/05 00:12:41;;;;;;;5.30;2.00;;;;;;;10.13;100.00;96708.44;5123436;28;20083;-82
2022/01/05 00:15:09;;;;;;;4.50;1.80;;;;;;;10.14;100.00;96692.84;5126815;28;20035;-86
2022/01/05 00:17:34;;;;;;;3.55;1.85;;;;;;;10.12;100.00;96695.03;5126731;28;20012;-84
2022/01/05 00:20:01;;;;;;;5.28;2.30;;;;;;;10.15;100.00;96689.78;5129667;28;20030;-85
2022/01/05 00:22:26;;;;;;;5.00;2.00;;;;;;;10.17;100.00;96686.72;5127323;28;20420;-88
2022/01/05 00:24:51;;;;;;;4.35;2.15;;;;;;;10.21;100.00;96688.47;5126280;28;20023;-87
2022/01/05 00:27:17;;;;;;;6.00;2.08;;;;;;;10.23;100.00;96681.91;5124875;28;20012;-83
2022/01/05 00:29:42;;;;;;;5.38;2.05;;;;;;;10.25;100.00;96679.63;5123774;28;20035;-84
2022/01/05 00:32:08;;;;;;;4.55;1.90;;;;;;;10.27;100.00;96680.13;5122953;28;20047;-87
2022/01/05 00:34:34;;;;;;;3.88;2.00;;;;;;;10.30;100.00;96683.00;5122887;28;20589;-88
2022/01/05 00:37:00;;;;;;;4.15;2.40;;;;;;;10.34;100.00;96675.75;5118316;28;20096;-81
2022/01/05 00:39:25;;;;;;;5.22;2.00;;;;;;;10.35;100.00;96666.44;5118287;28;20024;-89
2022/01/05 00:41:51;;;;;;;4.38;1.90;;;;;;;10.39;100.00;96674.78;5117227;27;20024;-77
2022/01/05 00:44:16;;;;;;;4.82;2.17;;;;;;;10.47;100.00;96663.81;5117341;28;20053;-81
2022/01/05 00:46:42;;;;;;;3.67;1.77;;;;;;;10.50;100.00;96663.16;5118495;28;20038;-81
2022/01/05 00:49:07;;;;;;;5.75;2.10;;;;;;;10.49;100.00;96658.84;5117068;28;20053;-86
2022/01/05 00:51:33;;;;;;;4.35;2.08;;;;;;;10.54;100.00;96663.31;5118628;28;20076;-82
2022/01/05 00:53:58;;;;;;;6.20;1.98;;;;;;;10.54;100.00;96666.88;5117963;28;20028;-85
2022/01/05 00:56:24;;;;;;;5.70;2.15;;;;;;;10.53;100.00;96673.44;5115181;28;20039;-83
2022/01/05 00:58:49;;;;;;;3.90;2.47;;;;;;;10.64;100.00;96671.19;5113422;28;20030;-85
2022/01/05 01:01:14;;;;;;;3.47;1.95;;;;;;;10.54;100.00;96663.31;5126085;28;20041;-86
2022/01/05 01:03:40;;;;;;;4.40;2.05;;;;;;;10.61;100.00;96669.91;5121092;28;20023;-84
2022/01/05 01:06:05;;;;;;;3.33;1.80;;;;;;;10.64;100.00;96668.44;5120931;28;20036;-85
2022/01/05 01:08:32;;;;;;;4.10;2.10;;;;;;;10.68;100.00;96674.88;5123996;28;20019;-81
2022/01/05 01:10:57;;;;;;;4.43;2.10;;;;;;;10.62;100.00;96668.75;5124091;28;20015;-83
2022/01/05 01:13:23;;;;;;;3.45;1.73;;;;;;;10.72;100.00;96679.34;5118861;28;20026;-83
2022/01/05 01:15:51;;;;;;;6.22;2.00;;;;;;;10.72;100.00;96671.13;5124600;28;20031;-87
2022/01/05 01:18:18;;;;;;;4.95;2.10;;;;;;;10.82;100.00;96682.84;5130470;28;20019;-86
2022/01/05 01:20:43;;;;;;;4.60;2.20;;;;;;;10.81;100.00;96678.53;5125303;28;20033;-86
2022/01/05 01:23:09;;;;;;;6.22;2.28;;;;;;;10.80;100.00;96668.69;5125199;28;20055;-87
2022/01/05 01:25:35;;;;;;;4.28;2.28;;;;;;;10.80;100.00;96669.50;5123028;28;20027;-83
2022/01/05 01:28:02;;;;;;;3.83;2.10;;;;;;;10.82;100.00;96669.16;5122182;28;20023;-85
2022/01/05 01:30:31;;;;;;;4.90;2.25;;;;;;;10.79;100.00;96667.09;5121720;28;20024;-84
2022/01/05 01:32:59;;;;;;;7.40;2.25;;;;;;;10.80;100.00;96668.69;5122472;28;20023;-87
2022/01/05 01:35:25;;;;;;;6.55;2.58;;;;;;;10.83;100.00;96665.31;5123754;28;20142;-84
2022/01/05 01:37:52;;;;;;;4.47;2.30;;;;;;;10.83;100.00;96660.66;5126199;28;22114;-86
2022/01/05 01:40:18;;;;;;;5.68;2.15;;;;;;;10.83;100.00;96657.91;5124387;28;20050;-87
2022/01/05 01:42:44;;;;;;;5.47;2.65;;;;;;;10.81;100.00;96662.13;5122662;28;20020;-83
2022/01/05 01:45:10;;;;;;;5.15;2.58;;;;;;;10.80;100.00;96649.56;5100857;28;20039;-82
2022/01/05 01:47:35;;;;;;;6.28;2.47;;;;;;;10.77;100.00;96651.78;5119030;28;20027;-84
2022/01/05 01:50:00;;;;;;;6.80;2.40;;;;;;;10.75;100.00;96654.06;5120284;28;20031;-87
2022/01/05 01:52:26;;;;;;;4.82;2.42;;;;;;;10.69;100.00;96655.38;5120290;28;20024;-84
2022/01/05 01:54:52;;;;;;;5.32;2.60;;;;;;;10.77;100.00;96655.69;5119178;28;20035;-82
2022/01/05 01:57:20;;;;;;;6.75;3.05;;;;;;;10.71;100.00;96657.81;5121725;28;20035;-83
2022/01/05 01:59:46;;;;;;;4.65;2.60;;;;;;;10.78;100.00;96660.81;5120558;28;20372;-82
2022/01/05 02:02:12;;;;;;;4.53;2.33;;;;;;;10.77;100.00;96648.28;5115768;28;20035;-81
2022/01/05 02:04:39;;;;;;;5.60;2.70;;;;;;;10.74;100.00;96641.53;5116483;28;20100;-82
2022/01/05 02:07:04;;;;;;;7.32;2.75;;;;;;;10.70;100.00;96646.06;5122986;28;20055;-81
2022/01/05 02:09:30;;;;;;;4.15;2.45;;;;;;;10.77;100.00;96642.00;5124551;28;20053;-82
2022/01/05 02:11:55;;;;;;;3.97;2.15;;;;;;;10.82;100.00;96637.16;5125312;28;20024;-83
2022/01/05 02:14:21;;;;;;;4.97;2.30;;;;;;;10.86;100.00;96632.63;5120518;28;20024;-83
2022/01/05 02:16:47;;;;;;;4.07;2.30;;;;;;;10.82;100.00;96625.41;5119893;28;20024;-82
2022/01/05 02:19:13;;;;;;;5.38;2.17;;;;;;;10.80;100.00;96616.72;5119619;28;20114;-81
2022/01/05 02:21:42;;;;;;;5.38;2.33;;;;;;;10.79;100.00;96620.59;5118664;28;20067;-85
2022/01/05 02:24:09;;;;;;;4.00;2.00;;;;;;;10.83;100.00;96605.13;5121040;28;20039;-85
2022/01/05 02:26:35;;;;;;;4.65;2.20;;;;;;;10.85;100.00;96613.81;5124584;28;20019;-86
2022/01/05 02:29:01;;;;;;;6.47;2.20;;;;;;;10.85;100.00;96616.53;5121101;28;20119;-89
2022/01/05 02:31:27;;;;;;;5.68;2.20;;;;;;;10.84;100.00;96609.47;5121109;28;20051;-86
2022/01/05 02:33:53;;;;;;;4.35;2.00;;;;;;;10.82;100.00;96600.78;5120728;28;20031;-86
2022/01/05 02:36:20;;;;;;;5.47;2.47;;;;;;;10.90;100.00;96599.97;5125069;28;20031;-83
2022/01/05 02:38:47;;;;;;;4.82;2.33;;;;;;;10.85;100.00;96591.91;5120986;28;20115;-84
2022/01/05 02:41:13;;;;;;;5.88;2.28;;;;;;;10.87;100.00;96586.94;5124883;28;20059;-84
2022/01/05 02:43:41;;;;;;;6.35;2.38;;;;;;;10.87;100.00;96579.50;5117698;28;20031;-87
2022/01/05 02:46:15;;;;;;;4.78;2.33;;;;;;;10.88;100.00;96580.31;5123716;28;20024;-86
2022/01/05 02:48:41;;;;;;;3.77;1.87;;;;;;;10.87;100.00;96593.19;5126089;28;20123;-80
2022/01/05 02:51:07;;;;;;;4.38;2.30;;;;;;;10.83;100.00;96573.13;5123360;28;20055;-82
2022/01/05 02:53:34;;;;;;;4.43;2.38;;;;;;;10.78;100.00;96570.56;5122746;28;20027;-84
2022/01/05 02:55:59;;;;;;;4.70;2.20;;;;;;;10.81;100.00;96574.59;5120501;28;20068;-84
2022/01/05 02:58:25;;;;;;;3.55;2.35;;;;;;;10.77;100.00;96580.69;5118335;28;20380;-83
2022/01/05 03:00:51;;;;;;;3.95;2.17;;;;;;;10.77;100.00;96566.25;5121407;28;20027;-81
2022/01/05 03:03:16;;;;;;;7.13;2.67;;;;;;;10.80;100.00;96570.25;5117249;28;20384;-86
2022/01/05 03:05:42;;;;;;;4.65;2.50;;;;;;;10.81;100.00;96569.13;5117166;28;20030;-78
2022/01/05 03:08:07;;;;;;;6.47;2.40;;;;;;;10.84;100.00;96569.22;5116423;28;20026;-85
2022/01/05 03:10:33;;;;;;;5.15;2.75;;;;;;;10.80;100.00;96562.03;5115276;28;20028;-83
2022/01/05 03:12:58;;;;;;;5.10;2.30;;;;;;;10.80;100.00;96562.84;5116362;28;20472;-84
2022/01/05 03:15:24;;;;;;;4.60;2.17;;;;;;;10.81;100.00;96556.22;5116747;28;20019;-86
2022/01/05 03:17:49;;;;;;;7.45;2.55;;;;;;;10.72;100.00;96560.94;5121987;28;20058;-84
2022/01/05 03:20:19;;;;;;;6.05;2.40;;;;;;;10.71;100.00;96556.63;5123371;28;20050;-84
2022/01/05 03:22:45;;;;;;;4.55;2.50;;;;;;;10.72;100.00;96559.00;5122746;28;20024;-83
2022/01/05 03:25:18;;;;;;;5.28;2.38;;;;;;;10.67;100.00;96548.28;5127951;28;20049;-83
2022/01/05 03:27:48;;;;;;;5.22;2.45;;;;;;;10.66;100.00;96545.84;5119346;27;20019;-82
2022/01/05 03:30:17;;;;;;;6.78;2.50;;;;;;;10.65;100.00;96545.03;5119205;28;20028;-82
2022/01/05 03:33:09;;;;;;;3.63;2.25;;;;;;;10.61;100.00;96548.78;5118198;28;20023;-80
2022/01/05 03:35:31;;;;;;;8.00;2.53;;;;;;;10.64;100.00;96548.94;5121293;28;20392;-84
2022/01/05 03:37:56;;;;;;;5.90;2.60;;;;;;;10.61;100.00;96544.13;5121049;27;20582;-86
2022/01/05 03:40:22;;;;;;;4.70;2.65;;;;;;;10.61;100.00;96554.25;5118511;28;20130;-83
2022/01/05 03:42:48;;;;;;;5.50;2.40;;;;;;;10.60;100.00;96542.50;5118255;28;20476;-81
2022/01/05 03:45:13;;;;;;;6.05;2.88;;;;;;;10.66;100.00;96554.88;5119163;28;20016;-84
2022/01/05 03:47:39;;;;;;;5.00;2.65;;;;;;;10.61;100.00;96546.06;5119158;28;20032;-87
2022/01/05 03:50:05;;;;;;;4.22;2.30;;;;;;;10.67;100.00;96548.28;5117856;28;20053;-87
2022/01/05 03:52:31;;;;;;;7.85;2.30;;;;;;;10.67;100.00;96547.47;5119258;28;20027;-85
2022/01/05 03:54:57;;;;;;;6.30;2.25;;;;;;;10.69;100.00;96537.00;5118728;28;20088;-84
2022/01/05 03:57:25;;;;;;;4.70;2.33;;;;;;;10.82;100.00;96543.34;5114805;28;20099;-82
2022/01/05 03:59:52;;;;;;;5.45;2.40;;;;;;;10.79;100.00;96533.06;5121914;28;20015;-86
2022/01/05 04:02:18;;;;;;;4.68;2.40;;;;;;;10.77;100.00;96535.34;5118775;28;20027;-82
2022/01/05 04:04:45;;;;;;;6.28;2.75;;;;;;;10.70;100.00;96542.13;5121658;28;20051;-85
2022/01/05 04:07:11;;;;;;;3.92;2.70;;;;;;;10.70;100.00;96531.19;5119297;28;20483;-84
2022/01/05 04:09:36;;;;;;;6.65;2.55;;;;;;;10.72;100.00;96534.41;5119350;28;20038;-86
2022/01/05 04:12:01;;;;;;;6.85;2.80;;;;;;;10.70;100.00;96527.66;5122250;28;20110;-86
2022/01/05 04:14:27;;;;;;;6.28;2.65;;;;;;;10.69;100.00;96526.84;5122946;28;20016;-89
2022/01/05 04:16:52;;;;;;;5.55;2.50;;;;;;;10.65;100.00;96520.44;5125544;28;20031;-88
2022/01/05 04:19:18;;;;;;;9.18;3.13;;;;;;;10.63;100.00;96506.31;5122253;28;20024;-83
2022/01/05 04:21:43;;;;;;;6.88;2.50;;;;;;;10.61;100.00;96505.03;5120121;28;20019;-84
2022/01/05 04:24:09;;;;;;;8.10;3.72;;;;;;;10.63;100.00;96511.78;5117274;28;20024;-83
2022/01/05 04:26:34;;;;;;;7.47;2.92;;;;;;;10.60;100.00;96512.44;5116725;28;20480;-83
2022/01/05 04:29:00;;;;;;;4.80;2.30;;;;;;;10.51;100.00;96516.34;5118266;28;20095;-81
2022/01/05 04:31:25;;;;;;;6.93;2.60;;;;;;;10.50;100.00;96501.88;5121303;28;20060;-87
2022/01/05 04:33:51;;;;;;;6.43;2.55;;;;;;;10.39;100.00;96497.13;5122655;28;20356;-84
2022/01/05 04:36:16;;;;;;;6.15;3.00;;;;;;;10.35;100.00;96502.44;5118239;28;20012;-87
2022/01/05 04:38:42;;;;;;;6.88;3.42;;;;;;;10.38;100.00;96492.78;5120542;28;20024;-84
2022/01/05 04:41:07;;;;;;;8.43;2.92;;;;;;;10.39;100.00;96497.94;5120812;28;20026;-85
2022/01/05 04:43:33;;;;;;;5.70;3.30;;;;;;;10.31;100.00;96481.56;5126190;28;20019;-83
2022/01/05 04:45:58;;;;;;;7.68;3.30;;;;;;;10.37;100.00;96489.25;5113110;28;20016;-84
2022/01/05 04:48:23;;;;;;;7.70;3.40;;;;;;;10.35;100.00;96480.59;5113434;28;20058;-82
2022/01/05 04:50:49;;;;;;;10.15;3.58;;;;;;;10.37;100.00;96480.25;5115872;28;20155;-82
2022/01/05 04:53:18;;;;;;;7.63;3.28;;;;;;;10.34;100.00;96476.22;5099176;28;20087;-85
2022/01/05 04:55:46;;;;;;;9.52;3.95;;;;;;;10.36;100.00;96468.53;5099756;28;20065;-81
2022/01/05 04:58:11;;;;;;;9.80;4.10;;;;;;;10.41;100.00;96459.31;5097721;28;20038;-82
2022/01/05 05:00:37;;;;;;;6.97;3.55;;;;;;;10.39;100.00;96442.47;5096232;28;20392;-84
2022/01/05 05:03:03;;;;;;;8.63;3.50;;;;;;;10.43;100.00;96452.38;5098877;28;20107;-83
2022/01/05 05:05:28;;;;;;;8.57;3.42;;;;;;;10.41;100.00;96435.53;5126696;28;20039;-84
2022/01/05 05:07:54;;;;;;;12.15;3.60;;;;;;;10.47;100.00;96445.13;5129092;28;20028;-85
2022/01/05 05:10:19;;;;;;;8.65;3.35;;;;;;;10.55;100.00;96436.09;5127647;28;20031;-85
2022/01/05 05:12:45;;;;;;;11.73;3.35;;;;;;;10.52;100.00;96436.75;5121930;28;20043;-85
2022/01/05 05:15:10;;;;;;;8.63;3.15;;;;;;;10.55;100.00;96435.28;5127454;28;20044;-86
2022/01/05 05:17:35;;;;;;;7.45;3.08;;;;;;;10.62;100.00;96441.81;5126611;28;20012;-87
2022/01/05 05:20:01;;;;;;;10.85;3.65;;;;;;;10.59;100.00;96433.47;5124864;28;20544;-87
2022/01/05 05:22:27;;;;;;;8.07;3.10;;;;;;;10.62;100.00;96430.06;5123981;28;20016;-84
2022/01/05 05:24:52;;;;;;;12.40;3.92;;;;;;;10.62;100.00;96432.78;5121360;28;20060;-85
2022/01/05 05:27:17;;;;;;;8.93;3.40;;;;;;;10.62;100.00;96424.59;5121952;28;20034;-84
2022/01/05 05:29:43;;;;;;;8.07;3.55;;;;;;;10.70;100.00;96437.41;5120802;28;20024;-80
2022/01/05 05:32:08;;;;;;;5.70;2.90;;;;;;;10.71;100.00;96434.34;5121660;28;20019;-84
2022/01/05 05:34:34;;;;;;;9.23;3.47;;;;;;;10.71;100.00;96433.56;5121767;28;20020;-83
2022/01/05 05:37:00;;;;;;;7.07;3.03;;;;;;;10.73;100.00;96431.28;5125982;28;20018;-83
2022/01/05 05:39:25;;;;;;;9.13;3.38;;;;;;;10.74;100.00;96428.19;5127225;28;20020;-84
2022/01/05 05:41:53;;;;;;;12.57;3.47;;;;;;;10.77;100.00;96436.88;5124367;28;20015;-85
2022/01/05 05:44:19;;;;;;;9.60;3.95;;;;;;;10.77;100.00;96437.69;5136356;28;20036;-86
2022/01/05 05:46:44;;;;;;;8.32;3.45;;;;;;;10.78;100.00;96436.53;5137763;28;20041;-86
2022/01/05 05:49:10;;;;;;;7.93;3.40;;;;;;;10.81;100.00;96435.09;5136495;28;20039;-85
2022/01/05 05:51:35;;;;;;;8.50;3.05;;;;;;;10.84;100.00;96432.47;5133747;28;20039;-86
2022/01/05 05:54:01;;;;;;;7.97;3.42;;;;;;;10.81;100.00;96433.13;5130579;28;20030;-84
2022/01/05 05:56:26;;;;;;;11.30;4.70;;;;;;;10.88;100.00;96427.13;5127123;28;20040;-86
2022/01/05 05:58:52;;;;;;;8.00;3.40;;;;;;;10.97;100.00;96434.13;5124451;28;20476;-81
2022/01/05 06:01:17;;;;;;;7.82;2.92;;;;;;;10.99;100.00;96437.34;5123412;28;20034;-82
2022/01/05 06:03:43;;;;;;;9.05;2.95;;;;;;;10.98;100.00;96438.47;5124375;28;20045;-81
2022/01/05 06:06:08;;;;;;;8.95;3.45;;;;;;;10.97;100.00;96430.59;5124927;28;20031;-87
2022/01/05 06:08:34;;;;;;;8.27;3.08;;;;;;;11.04;100.00;96428.13;5126913;28;20522;-85
2022/01/05 06:10:59;;;;;;;11.95;3.30;;;;;;;11.07;100.00;96421.97;5125144;28;20027;-81
2022/01/05 06:13:25;;;;;;;6.82;3.30;;;;;;;11.10;100.00;96418.56;5124832;28;20016;-83
2022/01/05 06:15:50;;;;;;;7.53;2.88;;;;;;;11.19;100.00;96419.28;5127342;28;20035;-81
2022/01/05 06:18:15;;;;;;;6.47;2.85;;;;;;;11.21;100.00;96411.56;5124296;28;20106;-82
2022/01/05 06:20:41;;;;;;;6.65;2.85;;;;;;;11.17;100.00;96407.88;5122719;28;20146;-83
2022/01/05 06:23:06;;;;;;;10.82;3.35;;;;;;;11.19;100.00;96414.63;5124567;28;20019;-87
2022/01/05 06:25:32;;;;;;;9.23;3.20;;;;;;;11.13;100.00;96402.28;5126037;28;20016;-82
2022/01/05 06:27:57;;;;;;;9.63;3.83;;;;;;;11.14;100.00;96392.94;5119770;28;20395;-82
2022/01/05 06:30:23;;;;;;;6.95;2.60;;;;;;;11.17;100.00;96396.94;5123006;28;20096;-82
2022/01/05 06:32:49;;;;;;;9.15;2.80;;;;;;;11.11;100.00;96385.41;5117701;28;20055;-81
2022/01/05 06:35:16;;;;;;;8.95;2.75;;;;;;;11.14;100.00;96387.47;5118645;28;20030;-80
2022/01/05 06:37:41;;;;;;;4.95;2.70;;;;;;;11.15;100.00;96369.91;5113951;28;20415;-81
2022/01/05 06:40:08;;;;;;;6.25;2.85;;;;;;;11.11;100.00;96382.66;5122169;28;20061;-87
2022/01/05 06:42:33;;;;;;;6.25;2.83;;;;;;;11.11;100.00;96374.47;5127999;28;20049;-82
2022/01/05 06:44:59;;;;;;;7.43;2.90;;;;;;;11.18;100.00;96380.16;5134376;28;20058;-88
2022/01/05 06:47:25;;;;;;;9.57;2.80;;;;;;;11.12;100.00;96362.34;5118427;28;20032;-80
2022/01/05 06:49:50;;;;;;;6.15;2.92;;;;;;;11.14;100.00;96360.09;5120458;28;20503;-79
2022/01/05 06:52:16;;;;;;;9.18;2.70;;;;;;;11.17;100.00;96369.56;5116016;28;20082;-82
2022/01/05 06:54:42;;;;;;;6.60;2.58;;;;;;;11.19;100.00;96373.56;5116243;28;20027;-83
2022/01/05 06:57:08;;;;;;;12.15;2.90;;;;;;;11.16;100.00;96379.72;5115450;28;20035;-83
2022/01/05 06:59:35;;;;;;;6.68;2.58;;;;;;;11.13;100.00;96379.59;5115031;28;20034;-82
2022/01/05 07:02:01;;;;;;;7.65;2.95;;;;;;;11.09;100.00;96378.66;5126505;28;20027;-83
2022/01/05 07:04:26;;;;;;;9.30;2.78;;;;;;;11.14;100.00;96359.31;5118904;28;20026;-80
2022/01/05 07:06:51;;;;;;;6.60;3.10;;;;;;;11.13;100.00;96368.63;5116974;28;20015;-81
2022/01/05 07:09:17;;;;;;;6.35;2.67;;;;;;;11.15;100.00;96367.16;5114518;28;20468;-82
2022/01/05 07:11:43;;;;;;;8.57;3.13;;;;;;;11.21;100.00;96365.03;5114051;28;20055;-79
2022/01/05 07:14:08;;;;;;;8.73;2.85;;;;;;;11.32;100.00;96370.84;5114308;28;20019;-90
2022/01/05 07:16:34;;;;;;;6.03;2.70;;;;;;;11.31;100.00;96359.09;5122776;28;20054;-84
2022/01/05 07:18:59;;;;;;;8.20;2.67;;;;;;;11.36;100.00;96356.16;5116888;28;20114;-85
2022/01/05 07:21:25;;;;;;;6.07;2.67;;;;;;;11.44;100.00;96368.94;5117827;28;20051;-82
2022/01/05 07:23:50;;;;;;;10.10;2.83;;;;;;;11.43;100.00;96352.88;5118523;28;20016;-79
2022/01/05 07:26:15;;;;;;;7.32;2.75;;;;;;;11.41;100.00;96369.63;5121810;28;20016;-83
2022/01/05 07:28:44;;;;;;;6.40;2.80;;;;;;;11.42;100.00;96365.75;5116569;28;20032;-79
2022/01/05 07:31:10;;;;;;;10.20;3.20;;;;;;;11.42;100.00;96362.22;5117258;28;20034;-81
2022/01/05 07:33:36;;;;;;;11.18;2.58;;;;;;;11.44;100.00;96357.19;5116392;28;20485;-77
2022/01/05 07:36:02;;;;;;;5.57;2.72;;;;;;;11.44;100.00;96358.00;5114439;28;20028;-80
2022/01/05 07:38:28;;;;;;;6.68;2.75;;;;;;;11.45;100.00;96348.63;5117715;28;20020;-83
2022/01/05 07:40:54;;;;;;;10.02;2.85;;;;;;;11.47;100.00;96356.50;5120222;28;20034;-82
2022/01/05 07:43:22;;;;;;;8.43;2.85;;;;;;;11.50;100.00;96353.88;5098359;28;20052;-85
2022/01/05 07:45:47;;;;;;;6.15;3.00;;;;;;;11.57;100.00;96361.53;5103154;28;20050;-86
2022/01/05 07:48:13;;;;;;;6.95;2.88;;;;;;;11.60;100.00;96345.22;5125363;28;20032;-83
2022/01/05 07:50:38;;;;;;;8.10;2.83;;;;;;;11.62;100.00;96337.47;5128054;28;20095;-74
2022/01/05 07:53:04;;;;;;;7.55;2.80;;;;;;;11.73;100.00;96340.59;5113345;28;20035;-75
2022/01/05 07:55:30;;;;;;;9.20;3.05;;;;;;;11.78;100.00;96343.09;5106088;28;20083;-74
2022/01/05 07:57:56;;;;;;;6.07;2.80;;;;;;;11.87;100.00;96348.47;5113681;28;20033;-77
2022/01/05 08:00:22;;;;;;;7.05;3.55;;;;;;;11.94;100.00;96343.19;5116249;28;20027;-74
2022/01/05 08:02:47;;;;;;;9.52;3.28;;;;;;;12.01;100.00;96337.94;5120950;28;20388;-74
2022/01/05 08:05:13;;;;;;;9.10;3.20;;;;;;;12.30;100.00;96343.97;5110647;28;20028;-75
2022/01/05 08:07:38;;;;;;;6.60;2.70;;;;;;;12.45;100.00;96336.94;5111437;28;20034;-75
2022/01/05 08:10:04;;;;;;;10.43;3.28;;;;;;;12.48;100.00;96341.75;5110956;28;20027;-75
2022/01/05 08:12:29;;;;;;;7.15;2.65;;;;;;;12.40;100.00;96334.47;5111565;28;20452;-75
2022/01/05 08:14:55;;;;;;;9.07;2.75;;;;;;;12.63;100.00;96335.53;5107186;28;20028;-74
2022/01/05 08:17:20;;;;;;;7.88;3.03;;;;;;;12.71;100.00;96326.38;5110658;28;20024;-75
2022/01/05 08:19:46;;;;;;;8.77;3.03;;;;;;;12.64;100.00;96339.88;5111263;28;20038;-74
2022/01/05 08:22:11;;;;;;;7.03;3.15;;;;;;;12.78;100.00;96332.03;5105288;28;20036;-73
2022/01/05 08:24:37;;;;;;;6.90;2.67;;;;;;;12.83;100.00;96337.28;5108716;28;20047;-74
2022/01/05 08:27:02;;;;;;;10.05;3.00;;;;;;;13.11;100.00;96334.56;5106963;28;20034;-73
2022/01/05 08:29:28;;;;;;;15.95;3.70;;;;;;;12.99;100.00;96334.59;5106058;28;20035;-73
2022/01/05 08:31:53;;;;;;;9.48;2.85;;;;;;;12.95;100.00;96322.69;5106838;28;20438;-73
2022/01/05 08:34:19;;;;;;;7.25;2.90;;;;;;;12.98;100.00;96343.16;5109916;27;20064;-76
2022/01/05 08:36:44;;;;;;;7.85;2.97;;;;;;;12.88;100.00;96348.00;5107246;28;20016;-74
2022/01/05 08:39:09;;;;;;;9.35;2.85;;;;;;;13.04;100.00;96353.53;5109867;28;20090;-75
2022/01/05 08:41:38;;;;;;;8.02;2.80;;;;;;;13.03;100.00;96342.91;5108550;28;20111;-78
2022/01/05 08:44:03;;;;;;;5.50;2.60;;;;;;;13.06;100.00;96348.47;5103049;28;20038;-73
2022/01/05 08:46:29;;;;;;;6.85;2.90;;;;;;;12.76;100.00;96350.00;5110804;28;20066;-74
2022/01/05 08:48:54;;;;;;;8.50;2.90;;;;;;;12.76;100.00;96353.53;5109244;28;20118;-75
2022/01/05 08:51:20;;;;;;;8.43;3.10;;;;;;;12.75;100.00;96362.91;5109393;28;20028;-74
2022/01/05 08:53:45;;;;;;;12.07;2.78;;;;;;;12.55;100.00;96333.72;5107336;28;20042;-78
2022/01/05 08:56:11;;;;;;;5.57;2.58;;;;;;;12.56;100.00;96338.06;5108940;28;20039;-75
2022/01/05 08:58:36;;;;;;;12.00;2.88;;;;;;;12.57;100.00;96344.34;5107474;28;20038;-75
2022/01/05 09:01:02;;;;;;;7.85;2.83;;;;;;;12.54;100.00;96343.09;5109281;28;20066;-77
2022/01/05 09:03:27;;;;;;;7.13;3.10;;;;;;;12.43;100.00;96344.75;5111970;28;20033;-80
2022/01/05 09:05:53;;;;;;;10.43;3.38;;;;;;;12.45;100.00;96338.91;5117420;28;20016;-78
2022/01/05 09:08:19;;;;;;;10.15;2.70;;;;;;;12.37;100.00;96340.66;5110874;28;20455;-83
2022/01/05 09:10:44;;;;;;;8.68;2.75;;;;;;;12.35;100.00;96345.66;5113647;28;20042;-74
2022/01/05 09:13:11;;;;;;;10.65;3.25;;;;;;;12.34;100.00;96347.59;5118679;28;20025;-79
2022/01/05 09:15:37;;;;;;;7.90;2.65;;;;;;;12.35;100.00;96340.16;5112581;28;20411;-81
2022/01/05 09:18:03;;;;;;;5.82;2.50;;;;;;;12.43;100.00;96355.72;5116003;28;20515;-80
2022/01/05 09:20:28;;;;;;;7.80;3.40;;;;;;;12.35;100.00;96340.16;5110415;28;20100;-87
2022/01/05 09:22:55;;;;;;;9.00;3.05;;;;;;;12.31;100.00;96328.28;5118928;28;20541;-87
2022/01/05 09:25:23;;;;;;;6.97;3.15;;;;;;;12.43;100.00;96338.44;5126952;28;20050;-83
2022/01/05 09:27:50;;;;;;;6.25;2.75;;;;;;;12.63;100.00;96332.78;5124149;28;20073;-86
2022/01/05 09:30:16;;;;;;;7.35;2.78;;;;;;;12.73;100.00;96335.03;5122501;28;20388;-85
2022/01/05 09:32:42;;;;;;;13.88;4.18;;;;;;;12.64;100.00;96309.69;5115304;28;20468;-82
2022/01/05 09:35:12;;;;;;;8.25;2.70;;;;;;;12.67;100.00;96319.97;5110143;28;20068;-83
2022/01/05 09:37:50;;;;;;;8.85;3.38;;;;;;;12.92;100.00;96304.19;5110232;28;20039;-75
2022/01/05 09:42:59;;;;;;;8.45;3.10;;;;;;;12.67;100.00;96316.44;5103307;28;20066;-81
2022/01/05 09:45:28;;;;;;;5.63;2.40;;;;;;;12.93;100.00;96333.25;5106738;28;20051;-80
2022/01/05 09:48:38;;;;;;;6.70;2.80;;;;;;;13.37;100.00;96323.06;5111770;28;20506;-85
2022/01/05 09:51:09;;;;;;;6.28;2.70;;;;;;;13.28;100.00;96330.69;5112299;28;20047;-88
2022/01/05 09:53:35;;;;;;;8.90;2.72;;;;;;;13.16;100.00;96331.53;5114706;28;20119;-77
2022/01/05 09:56:03;;;;;;;7.28;3.17;;;;;;;13.22;100.00;96351.28;5112964;28;20059;-86
2022/01/05 09:58:30;;;;;;;8.98;3.00;;;;;;;13.18;100.00;96342.97;5113466;28;20032;-80
2022/01/05 10:00:56;;;;;;;10.18;3.15;;;;;;;13.37;100.00;96342.31;5118037;28;20053;-86
2022/01/05 10:03:22;;;;;;;6.40;2.95;;;;;;;13.46;100.00;96345.69;5110882;28;20098;-83
2022/01/05 10:05:48;;;;;;;8.43;2.63;;;;;;;13.30;100.00;96342.09;5107480;28;20047;-81
2022/01/05 10:08:13;;;;;;;9.48;2.92;;;;;;;13.15;100.00;96331.91;5110286;28;20059;-82
2022/01/05 10:10:41;;;;;;;8.95;3.10;;;;;;;13.17;100.00;96333.16;5113375;28;20031;-82
2022/01/05 10:13:07;;;;;;;6.65;2.67;;;;;;;13.12;100.00;96330.66;5113570;28;20051;-82
2022/01/05 10:15:34;;;;;;;6.07;2.70;;;;;;;13.32;100.00;96345.28;5111053;28;20016;-82
2022/01/05 10:18:13;;;;;;;10.50;3.30;;;;;;;13.50;100.00;96337.53;5111124;28;20088;-79
2022/01/05 10:21:05;;;;;;;13.15;3.92;;;;;;;13.54;100.00;96335.66;5111615;28;20050;-86
2022/01/05 10:23:45;;;;;;;10.15;3.05;;;;;;;13.27;100.00;96335.38;5106433;28;20566;-78
2022/01/05 10:26:21;;;;;;;10.93;3.20;;;;;;;13.05;100.00;96329.63;5100115;28;20058;-74
2022/01/05 10:28:48;;;;;;;10.60;3.17;;;;;;;13.00;100.00;96324.41;5098471;28;20396;-76
2022/01/05 10:31:15;;;;;;;9.95;3.50;;;;;;;12.97;100.00;96320.41;5101618;28;20027;-80
2022/01/05 10:33:41;;;;;;;7.47;2.83;;;;;;;12.81;100.00;96317.59;5093228;28;20052;-75
2022/01/05 10:36:07;;;;;;;9.45;2.88;;;;;;;12.79;100.00;96314.44;5091118;28;20058;-78
2022/01/05 10:38:32;;;;;;;8.98;2.50;;;;;;;12.82;100.00;96308.25;5090321;28;20039;-75
2022/01/05 10:40:58;;;;;;;10.82;2.88;;;;;;;12.92;100.00;96312.44;5096029;28;20494;-77
2022/01/05 10:43:23;;;;;;;12.30;3.25;;;;;;;12.90;100.00;96310.03;5100886;28;20046;-78
2022/01/05 10:45:51;;;;;;;8.98;3.20;;;;;;;13.01;100.00;96309.50;5106910;28;20050;-77
2022/01/05 10:48:19;;;;;;;8.30;2.95;;;;;;;13.02;100.00;96305.63;5093713;28;20019;-77
2022/01/05 10:50:48;;;;;;;12.25;2.83;;;;;;;13.05;100.00;96307.66;5101611;28;20047;-76
2022/01/05 10:53:16;;;;;;;7.88;3.05;;;;;;;13.03;100.00;96301.75;5091457;28;20062;-79
2022/01/05 10:55:44;;;;;;;9.38;3.05;;;;;;;13.01;100.00;96293.03;5101952;28;20067;-78
2022/01/05 10:58:15;;;;;;;12.65;3.55;;;;;;;13.10;100.00;96291.75;5101283;28;20024;-78
2022/01/05 11:00:46;;;;;;;10.10;3.17;;;;;;;13.04;100.00;96289.59;5098523;28;20024;-76
2022/01/05 11:03:30;;;;;;;11.57;3.40;;;;;;;13.00;100.00;96284.00;5103400;28;20031;-77
2022/01/05 11:06:16;;;;;;;9.98;3.25;;;;;;;12.80;100.00;96279.56;5105918;28;20020;-76
2022/01/05 11:08:56;;;;;;;8.27;2.83;;;;;;;12.63;100.00;96283.41;5107394;28;20031;-75
2022/01/05 11:11:40;;;;;;;9.77;3.60;;;;;;;12.56;100.00;96283.19;5102232;28;20456;-76
2022/01/05 11:14:09;;;;;;;9.73;3.22;;;;;;;12.53;100.00;96274.91;5109413;28;20026;-77
2022/01/05 11:16:37;;;;;;;6.68;3.17;;;;;;;12.50;100.00;96279.09;5104975;28;20024;-75
2022/01/05 11:19:21;;;;;;;10.93;3.50;;;;;;;12.48;100.00;96275.13;5096473;28;20040;-76
2022/01/05 11:22:13;;;;;;;10.45;3.20;;;;;;;12.44;100.00;96274.22;5106574;28;20023;-76
2022/01/05 11:24:54;;;;;;;9.25;3.20;;;;;;;12.49;100.00;96263.81;5089677;28;20040;-75